createdAt,value
2023-02-08T00:02:04.801Z,28.98
2023-02-08T00:04:32.133Z,26.50
2023-02-08T00:06:59.363Z,28.33
2023-02-08T00:09:26.558Z,24.77
2023-02-08T00:11:54.317Z,23.95
2023-02-08T00:14:21.684Z,25.60
2023-02-08T00:16:48.922Z,32.63
2023-02-08T00:19:16.168Z,27.30
2023-02-08T00:21:43.473Z,33.35
2023-02-08T00:24:10.746Z,27.77
2023-02-08T00:26:38.040Z,37.30
2023-02-08T00:29:05.289Z,26.50
2023-02-08T00:31:35.301Z,28.25
2023-02-08T00:34:04.643Z,34.70
2023-02-08T00:36:31.913Z,28.73
2023-02-08T00:38:59.172Z,32.08
2023-02-08T00:41:26.406Z,27.55
2023-02-08T00:43:53.716Z,33.25
2023-02-08T00:46:21.881Z,31.13
2023-02-08T00:48:50.123Z,31.70
2023-02-08T00:51:18.554Z,29.70
2023-02-08T00:53:46.260Z,29.10
2023-02-08T00:56:14.484Z,30.27
2023-02-08T00:58:42.243Z,29.70
2023-02-08T01:01:09.919Z,30.83
2023-02-08T01:03:38.139Z,35.42
2023-02-08T01:06:06.059Z,36.42
2023-02-08T01:08:33.380Z,34.10
2023-02-08T01:11:07.572Z,33.67
2023-02-08T01:13:35.250Z,32.05
2023-02-08T01:16:14.479Z,34.55
2023-02-08T01:21:10.506Z,35.65
2023-02-08T01:23:38.021Z,39.17
2023-02-08T01:26:05.637Z,38.75
2023-02-08T01:28:32.948Z,36.50
2023-02-08T01:31:00.234Z,35.75
2023-02-08T01:33:27.898Z,36.08
2023-02-08T01:35:55.821Z,29.65
2023-02-08T01:38:23.121Z,31.40
2023-02-08T01:40:50.376Z,31.85
2023-02-08T01:43:22.819Z,30.42
2023-02-08T01:45:50.143Z,30.17
2023-02-08T01:48:20.834Z,29.85
2023-02-08T01:51:04.062Z,28.08
2023-02-08T01:53:32.461Z,32.25
2023-02-08T01:56:01.488Z,29.73
2023-02-08T01:58:32.644Z,29.70
2023-02-08T02:01:00.050Z,29.92
2023-02-08T02:03:27.328Z,27.42
2023-02-08T02:06:02.782Z,27.08
2023-02-08T02:08:31.724Z,30.65
2023-02-08T02:10:59.021Z,30.50
2023-02-08T02:13:27.184Z,27.33
2023-02-08T02:15:54.962Z,24.33
2023-02-08T02:18:27.591Z,33.33
2023-02-08T02:21:07.885Z,29.48
2023-02-08T02:24:10.668Z,24.15
2023-02-08T02:26:54.094Z,27.30
2023-02-08T02:29:40.102Z,32.85
2023-02-08T02:32:19.971Z,29.33
2023-02-08T02:34:56.393Z,28.02
2023-02-08T02:37:31.177Z,32.88
2023-02-08T02:40:08.577Z,32.08
2023-02-08T02:42:54.744Z,29.92
2023-02-08T02:45:33.421Z,29.58
2023-02-08T02:48:00.870Z,31.92
2023-02-08T02:50:37.221Z,35.08
2023-02-08T02:53:08.410Z,38.75
2023-02-08T02:55:37.856Z,37.17
2023-02-08T02:58:06.215Z,34.28
2023-02-08T03:00:33.699Z,31.53
2023-02-08T03:03:00.999Z,27.33
2023-02-08T03:05:28.572Z,36.80
2023-02-08T03:07:55.826Z,35.13
2023-02-08T03:10:26.017Z,32.30
2023-02-08T03:13:02.090Z,27.80
2023-02-08T03:15:49.533Z,30.35
2023-02-08T03:18:16.806Z,30.83
2023-02-08T03:20:50.163Z,29.33
2023-02-08T03:23:22.140Z,29.55
2023-02-08T03:25:58.453Z,32.38
2023-02-08T03:28:28.673Z,29.25
2023-02-08T03:31:04.647Z,27.52
2023-02-08T03:33:36.790Z,33.25
2023-02-08T03:36:07.171Z,31.15
2023-02-08T03:38:38.772Z,25.83
2023-02-08T03:41:08.302Z,31.58
2023-02-08T03:43:54.328Z,25.70
2023-02-08T03:46:40.449Z,29.55
2023-02-08T03:49:14.697Z,32.45
2023-02-08T03:51:43.904Z,35.65
2023-02-08T03:54:17.365Z,29.55
2023-02-08T03:56:55.370Z,29.85
2023-02-08T03:59:25.907Z,33.53
2023-02-08T04:01:57.762Z,33.63
2023-02-08T04:04:27.061Z,33.22
2023-02-08T04:06:54.530Z,24.38
2023-02-08T04:09:21.783Z,32.83
2023-02-08T04:11:49.046Z,33.38
2023-02-08T04:14:16.261Z,37.42
2023-02-08T04:16:46.556Z,33.05
2023-02-08T04:19:13.796Z,35.53
2023-02-08T04:21:41.080Z,35.10
2023-02-08T04:24:08.425Z,31.92
2023-02-08T04:26:35.759Z,26.50
2023-02-08T04:29:02.976Z,31.52
2023-02-08T04:31:30.391Z,31.17
2023-02-08T04:33:57.938Z,32.33
2023-02-08T04:36:25.161Z,36.50
2023-02-08T04:38:52.426Z,28.77
2023-02-08T04:41:19.745Z,41.72
2023-02-08T04:43:46.999Z,32.10
2023-02-08T04:46:14.281Z,31.77
2023-02-08T04:48:41.562Z,31.33
2023-02-08T04:51:08.896Z,29.55
2023-02-08T04:53:36.220Z,31.77
2023-02-08T04:56:03.476Z,32.92
2023-02-08T04:58:30.762Z,34.83
2023-02-08T05:00:57.966Z,31.00
2023-02-08T05:03:25.190Z,27.23
2023-02-08T05:05:59.278Z,28.35
2023-02-08T05:08:26.910Z,30.48
2023-02-08T05:10:54.161Z,25.75
2023-02-08T05:13:21.432Z,33.00
2023-02-08T05:15:48.730Z,28.58
2023-02-08T05:18:16.009Z,28.80
2023-02-08T05:20:43.384Z,30.90
2023-02-08T05:23:10.630Z,28.05
2023-02-08T05:25:39.339Z,27.50
2023-02-08T05:28:06.749Z,21.75
2023-02-08T05:30:34.062Z,25.27
2023-02-08T05:33:01.540Z,29.95
2023-02-08T05:35:28.896Z,29.33
2023-02-08T05:37:56.194Z,27.90
2023-02-08T05:40:23.410Z,26.98
2023-02-08T05:42:50.764Z,28.63
2023-02-08T05:45:18.122Z,24.92
2023-02-08T05:47:48.122Z,25.80
2023-02-08T05:50:16.597Z,26.52
2023-02-08T05:52:44.205Z,24.08
2023-02-08T05:55:11.494Z,29.02
2023-02-08T05:57:38.756Z,24.63
2023-02-08T06:00:06.763Z,25.55
2023-02-08T06:02:43.320Z,23.67
2023-02-08T06:05:10.629Z,27.38
2023-02-08T06:07:38.008Z,30.20
2023-02-08T06:10:05.415Z,23.27
2023-02-08T06:12:32.662Z,31.30
2023-02-08T06:14:59.908Z,26.38
2023-02-08T06:17:27.166Z,25.60
2023-02-08T06:19:54.495Z,26.05
2023-02-08T06:22:21.771Z,26.58
2023-02-08T06:24:49.024Z,23.25
2023-02-08T06:27:16.265Z,24.35
2023-02-08T06:29:43.751Z,24.48
2023-02-08T06:32:11.426Z,26.80
2023-02-08T06:34:38.769Z,29.40
2023-02-08T06:37:06.132Z,27.83
2023-02-08T06:39:33.456Z,24.65
2023-02-08T06:42:00.844Z,25.60
2023-02-08T06:44:28.111Z,25.70
2023-02-08T06:46:55.346Z,26.63
2023-02-08T06:49:22.672Z,30.25
2023-02-08T06:51:49.916Z,25.75
2023-02-08T06:54:17.175Z,31.08
2023-02-08T06:56:44.424Z,28.63
2023-02-08T06:59:11.898Z,27.20
2023-02-08T07:01:39.151Z,26.45
2023-02-08T07:04:06.535Z,25.17
2023-02-08T07:06:33.864Z,33.30
2023-02-08T07:09:02.602Z,26.40
2023-02-08T07:11:29.838Z,28.20
2023-02-08T07:13:57.126Z,25.55
2023-02-08T07:16:24.645Z,26.15
2023-02-08T07:18:51.962Z,27.98
2023-02-08T07:21:19.254Z,30.85
2023-02-08T07:23:46.530Z,27.02
2023-02-08T07:26:17.300Z,26.75
2023-02-08T07:28:44.701Z,29.15
2023-02-08T07:31:13.289Z,24.25
2023-02-08T07:33:40.638Z,27.85
2023-02-08T07:36:09.052Z,32.95
2023-02-08T07:38:36.297Z,31.10
2023-02-08T07:41:04.636Z,27.52
2023-02-08T07:43:32.058Z,27.93
2023-02-08T07:46:05.677Z,26.02
2023-02-08T07:48:32.975Z,24.17
2023-02-08T07:51:00.303Z,30.52
2023-02-08T07:53:27.542Z,28.98
2023-02-08T07:55:54.797Z,34.47
2023-02-08T07:58:22.077Z,27.45
2023-02-08T08:00:49.357Z,30.33
2023-02-08T08:03:16.826Z,26.88
2023-02-08T08:05:44.329Z,30.80
2023-02-08T08:08:12.185Z,22.92
2023-02-08T08:10:40.210Z,24.70
2023-02-08T08:13:07.820Z,27.90
2023-02-08T08:15:35.056Z,24.42
2023-02-08T08:18:02.263Z,24.67
2023-02-08T08:20:29.478Z,26.67
2023-02-08T08:22:56.789Z,27.92
2023-02-08T08:25:23.966Z,29.35
2023-02-08T08:27:51.287Z,24.48
2023-02-08T08:30:18.681Z,22.95
2023-02-08T08:32:45.962Z,29.25
2023-02-08T08:35:13.341Z,24.65
2023-02-08T08:37:40.583Z,21.95
2023-02-08T08:40:08.453Z,24.65
2023-02-08T08:42:45.013Z,23.90
2023-02-08T08:45:12.393Z,27.77
2023-02-08T08:47:39.684Z,21.85
2023-02-08T08:50:07.366Z,24.95
2023-02-08T08:52:34.628Z,26.60
2023-02-08T08:55:02.005Z,26.30
2023-02-08T08:57:29.262Z,21.50
2023-02-08T08:59:56.470Z,24.10
2023-02-08T09:02:23.776Z,21.45
2023-02-08T09:04:51.054Z,20.13
2023-02-08T09:07:18.329Z,25.02
2023-02-08T09:09:47.980Z,20.52
2023-02-08T09:12:15.957Z,24.52
2023-02-08T09:14:44.853Z,21.40
2023-02-08T09:17:12.832Z,21.25
2023-02-08T09:19:40.193Z,21.88
2023-02-08T09:22:07.915Z,24.77
2023-02-08T09:24:35.844Z,22.75
2023-02-08T09:27:03.810Z,21.60
2023-02-08T09:29:32.924Z,23.92
2023-02-08T09:32:00.536Z,20.17
2023-02-08T09:34:28.142Z,22.23
2023-02-08T09:36:55.379Z,18.88
2023-02-08T09:39:23.952Z,23.60
2023-02-08T09:42:00.093Z,22.73
2023-02-08T09:44:37.524Z,23.42
2023-02-08T09:47:15.841Z,22.95
2023-02-08T09:49:58.708Z,20.90
2023-02-08T09:52:30.032Z,21.48
2023-02-08T09:54:59.938Z,23.13
2023-02-08T09:57:32.886Z,25.90
2023-02-08T10:00:03.582Z,18.98
2023-02-08T10:02:34.065Z,17.77
2023-02-08T10:05:06.496Z,19.63
2023-02-08T10:07:34.574Z,18.88
2023-02-08T10:10:03.181Z,17.88
2023-02-08T10:12:33.354Z,18.30
2023-02-08T10:15:00.608Z,19.50
2023-02-08T10:17:41.102Z,19.23
2023-02-08T10:20:27.038Z,18.20
2023-02-08T10:23:23.821Z,17.77
2023-02-08T10:25:53.940Z,19.23
2023-02-08T10:28:30.450Z,21.17
2023-02-08T10:31:01.035Z,22.75
2023-02-08T10:33:33.369Z,19.10
2023-02-08T10:36:00.640Z,17.42
2023-02-08T10:38:44.063Z,17.75
2023-02-08T10:41:17.778Z,19.42
2023-02-08T10:43:48.446Z,22.33
2023-02-08T10:46:31.227Z,20.48
2023-02-08T10:49:17.333Z,17.23
2023-02-08T10:51:45.987Z,17.58
2023-02-08T10:54:14.380Z,17.88
2023-02-08T10:56:41.718Z,17.37
2023-02-08T10:59:21.025Z,16.90
2023-02-08T11:04:16.443Z,17.20
2023-02-08T11:06:44.494Z,17.50
2023-02-08T11:09:27.003Z,19.20
2023-02-08T11:11:54.691Z,18.40
2023-02-08T11:14:27.130Z,14.50
2023-02-08T11:16:59.018Z,16.65
2023-02-08T11:19:39.253Z,17.98
2023-02-08T11:22:07.065Z,15.57
2023-02-08T11:24:40.020Z,17.63
2023-02-08T11:27:26.093Z,14.25
2023-02-08T11:30:11.116Z,13.60
2023-02-08T11:32:38.362Z,13.40
2023-02-08T11:35:25.566Z,15.10
2023-02-08T11:37:57.744Z,13.95
2023-02-08T11:40:25.054Z,16.00
2023-02-08T11:42:53.311Z,16.13
2023-02-08T11:45:31.999Z,15.27
2023-02-08T11:48:01.611Z,15.77
2023-02-08T11:50:31.910Z,14.93
2023-02-08T11:53:01.009Z,18.10
2023-02-08T11:55:29.870Z,16.75
2023-02-08T11:58:12.231Z,17.33
2023-02-08T12:00:40.257Z,15.07
2023-02-08T12:03:07.557Z,13.98
2023-02-08T12:05:48.244Z,16.55
2023-02-08T12:08:27.277Z,15.63
2023-02-08T12:10:57.346Z,14.25
2023-02-08T12:13:30.592Z,14.00
2023-02-08T12:16:11.454Z,15.25
2023-02-08T12:18:51.152Z,16.88
2023-02-08T12:21:21.831Z,15.65
2023-02-08T12:23:53.996Z,15.15
2023-02-08T12:26:57.229Z,15.93
2023-02-08T12:29:47.726Z,14.27
2023-02-08T12:32:33.590Z,18.10
2023-02-08T12:35:29.474Z,17.90
2023-02-08T12:38:33.030Z,17.83
2023-02-08T12:41:11.253Z,15.07
2023-02-08T12:43:54.865Z,15.80
2023-02-08T12:46:22.123Z,14.13
2023-02-08T12:49:08.160Z,13.80
2023-02-08T12:51:58.496Z,16.17
2023-02-08T12:54:38.874Z,15.02
2023-02-08T12:57:06.677Z,14.73
2023-02-08T12:59:38.339Z,17.77
2023-02-08T13:02:12.828Z,15.55
2023-02-08T13:04:41.887Z,15.77
2023-02-08T13:07:24.537Z,14.52
2023-02-08T13:10:06.866Z,15.00
2023-02-08T13:12:36.262Z,15.43
2023-02-08T13:15:30.713Z,15.48
2023-02-08T13:18:24.839Z,14.13
2023-02-08T13:20:53.492Z,14.25
2023-02-08T13:23:27.313Z,22.40
2023-02-08T13:26:07.683Z,15.70
2023-02-08T13:28:35.044Z,14.88
2023-02-08T13:31:06.294Z,14.07
2023-02-08T13:33:36.881Z,14.80
2023-02-08T13:36:04.936Z,14.30
2023-02-08T13:38:36.292Z,13.23
2023-02-08T13:41:05.365Z,14.07
2023-02-08T13:44:01.116Z,13.30
2023-02-08T13:46:29.786Z,15.68
2023-02-08T13:48:59.949Z,12.65
2023-02-08T13:51:33.487Z,13.88
2023-02-08T13:54:00.959Z,16.48
2023-02-08T13:56:41.176Z,15.93
2023-02-08T13:59:27.012Z,13.10
2023-02-08T14:02:12.939Z,13.00
2023-02-08T14:04:41.281Z,15.75
2023-02-08T14:07:11.666Z,15.10
2023-02-08T14:09:49.882Z,13.13
2023-02-08T14:12:17.159Z,12.75
2023-02-08T14:14:44.454Z,16.48
2023-02-08T14:17:27.183Z,21.35
2023-02-08T14:20:07.121Z,14.68
2023-02-08T14:22:37.367Z,20.73
2023-02-08T14:25:17.140Z,16.25
2023-02-08T14:27:51.376Z,15.90
2023-02-08T14:30:18.641Z,18.00
2023-02-08T14:32:47.605Z,16.67
2023-02-08T14:35:21.165Z,16.98
2023-02-08T14:37:50.722Z,17.15
2023-02-08T14:40:24.900Z,18.20
2023-02-08T14:42:57.300Z,16.83
2023-02-08T14:45:27.768Z,16.63
2023-02-08T14:47:57.677Z,16.55
2023-02-08T14:50:26.722Z,16.15
2023-02-08T14:53:01.704Z,19.45
2023-02-08T14:55:32.615Z,20.10
2023-02-08T14:58:02.115Z,17.42
2023-02-08T15:00:33.207Z,16.30
2023-02-08T15:03:02.044Z,16.60
2023-02-08T15:05:30.943Z,21.05
2023-02-08T15:07:59.397Z,16.40
2023-02-08T15:10:28.526Z,18.10
2023-02-08T15:13:02.353Z,17.15
2023-02-08T15:15:29.700Z,18.58
2023-02-08T15:17:57.750Z,18.33
2023-02-08T15:20:26.266Z,17.48
2023-02-08T15:23:12.424Z,16.73
2023-02-08T15:25:39.998Z,15.32
2023-02-08T15:28:21.471Z,15.43
2023-02-08T15:30:56.703Z,16.27
2023-02-08T15:33:24.114Z,18.70
2023-02-08T15:36:06.646Z,16.42
2023-02-08T15:38:35.057Z,14.13
2023-02-08T15:41:10.141Z,15.30
2023-02-08T15:43:38.162Z,19.40
2023-02-08T15:46:06.881Z,16.95
2023-02-08T15:48:34.547Z,16.05
2023-02-08T15:51:02.045Z,14.60
2023-02-08T15:53:29.948Z,15.18
2023-02-08T15:55:59.262Z,15.93
2023-02-08T16:00:57.777Z,14.45
2023-02-08T16:03:26.243Z,15.43
2023-02-08T16:05:56.431Z,13.98
2023-02-08T16:08:28.052Z,14.27
2023-02-08T16:10:57.507Z,17.23
2023-02-08T16:16:07.279Z,14.80
2023-02-08T16:18:50.248Z,16.85
2023-02-08T16:21:22.320Z,17.50
2023-02-08T16:23:51.290Z,15.60
2023-02-08T16:26:29.190Z,16.55
2023-02-08T16:28:58.157Z,18.30
2023-02-08T16:31:28.388Z,15.93
2023-02-08T16:34:03.875Z,19.00
2023-02-08T16:36:36.024Z,17.17
2023-02-08T16:39:22.262Z,15.70
2023-02-08T16:41:49.504Z,30.60
2023-02-08T16:44:17.393Z,22.70
2023-02-08T16:46:45.248Z,24.95
2023-02-08T16:49:12.485Z,45.35
2023-02-08T16:51:43.288Z,39.92
2023-02-08T16:54:13.177Z,21.30
2023-02-08T16:56:41.645Z,20.42
2023-02-08T16:59:09.478Z,22.97
2023-02-08T17:01:38.126Z,20.75
2023-02-08T17:04:05.816Z,16.38
2023-02-08T17:06:34.269Z,18.50
2023-02-08T17:09:02.357Z,19.07
2023-02-08T17:11:30.170Z,19.75
2023-02-08T17:13:58.560Z,23.25
2023-02-08T17:16:26.941Z,26.37
2023-02-08T17:18:54.274Z,32.70
2023-02-08T17:21:21.581Z,28.50
2023-02-08T17:23:48.861Z,21.88
2023-02-08T17:26:27.675Z,24.98
2023-02-08T17:28:55.775Z,18.77
2023-02-08T17:31:23.405Z,29.27
2023-02-08T17:33:50.826Z,23.55
2023-02-08T17:36:18.993Z,25.95
2023-02-08T17:38:47.105Z,24.27
2023-02-08T17:41:15.806Z,22.95
2023-02-08T17:43:43.121Z,20.70
2023-02-08T17:46:11.659Z,24.10
2023-02-08T17:48:39.387Z,20.40
2023-02-08T17:51:10.689Z,24.17
2023-02-08T17:53:40.681Z,23.50
2023-02-08T17:56:09.597Z,21.30
2023-02-08T17:58:37.057Z,14.43
2023-02-08T18:01:04.695Z,21.83
2023-02-08T18:03:32.289Z,17.63
2023-02-08T18:06:00.267Z,21.20
2023-02-08T18:08:27.704Z,20.40
2023-02-08T18:10:54.942Z,23.20
2023-02-08T18:13:22.182Z,19.73
2023-02-08T18:15:49.503Z,18.70
2023-02-08T18:18:18.241Z,21.67
2023-02-08T18:20:46.267Z,19.23
2023-02-08T18:23:14.023Z,17.55
2023-02-08T18:25:42.696Z,16.30
2023-02-08T18:28:14.613Z,14.55
2023-02-08T18:30:42.469Z,18.38
2023-02-08T18:33:10.788Z,15.00
2023-02-08T18:35:38.185Z,17.00
2023-02-08T18:38:05.429Z,15.32
2023-02-08T18:40:32.691Z,19.50
2023-02-08T18:43:00.039Z,15.82
2023-02-08T18:45:27.291Z,17.15
2023-02-08T18:47:54.550Z,19.00
2023-02-08T18:50:21.800Z,18.65
2023-02-08T18:52:48.989Z,32.08
2023-02-08T18:55:16.689Z,25.70
2023-02-08T18:57:46.828Z,32.72
2023-02-08T19:00:14.514Z,16.63
2023-02-08T19:02:41.769Z,18.10
2023-02-08T19:05:09.023Z,16.13
2023-02-08T19:07:36.335Z,15.50
2023-02-08T19:10:03.774Z,16.75
2023-02-08T19:12:30.957Z,15.75
2023-02-08T19:14:58.268Z,12.48
2023-02-08T19:17:25.517Z,19.65
2023-02-08T19:19:52.842Z,15.02
2023-02-08T19:22:20.118Z,17.92
2023-02-08T19:24:47.369Z,15.95
2023-02-08T19:27:14.601Z,14.02
2023-02-08T19:29:41.920Z,14.07
2023-02-08T19:32:09.222Z,14.23
2023-02-08T19:34:36.597Z,15.85
2023-02-08T19:37:04.034Z,16.77
2023-02-08T19:39:31.301Z,15.68
2023-02-08T19:41:59.085Z,16.83
2023-02-08T19:44:29.072Z,18.13
2023-02-08T19:46:57.543Z,14.88
2023-02-08T19:49:25.800Z,14.00
2023-02-08T19:51:53.108Z,14.80
2023-02-08T19:54:21.023Z,13.40
2023-02-08T19:56:50.389Z,13.23
2023-02-08T20:01:45.154Z,13.65
2023-02-08T20:04:12.785Z,17.88
2023-02-08T20:06:40.970Z,20.95
2023-02-08T20:09:08.767Z,17.92
2023-02-08T20:11:45.106Z,12.07
2023-02-08T20:14:22.214Z,17.20
2023-02-08T20:16:49.750Z,13.25
2023-02-08T20:19:17.073Z,11.93
2023-02-08T20:21:45.373Z,15.60
2023-02-08T20:24:12.867Z,15.43
2023-02-08T20:26:41.044Z,15.98
2023-02-08T20:29:09.292Z,14.13
2023-02-08T20:31:37.574Z,12.65
2023-02-08T20:34:07.279Z,13.88
2023-02-08T20:36:40.686Z,13.38
2023-02-08T20:39:08.867Z,13.77
2023-02-08T20:41:38.263Z,14.23
2023-02-08T20:46:34.707Z,12.40
2023-02-08T20:49:03.023Z,13.25
2023-02-08T20:51:30.845Z,15.65
2023-02-08T20:53:58.824Z,14.43
2023-02-08T20:56:29.300Z,12.73
2023-02-08T20:58:56.690Z,13.40
2023-02-08T21:01:25.654Z,16.23
2023-02-08T21:03:56.870Z,13.38
2023-02-08T21:06:29.447Z,15.10
2023-02-08T21:09:01.005Z,16.08
2023-02-08T21:11:29.624Z,13.30
2023-02-08T21:13:57.592Z,16.58
2023-02-08T21:16:25.191Z,13.23
2023-02-08T21:18:52.698Z,17.23
2023-02-08T21:21:20.406Z,19.02
2023-02-08T21:23:48.097Z,12.23
2023-02-08T21:26:16.685Z,16.17
2023-02-08T21:28:44.121Z,15.80
2023-02-08T21:31:14.514Z,14.88
2023-02-08T21:33:42.831Z,18.17
2023-02-08T21:36:12.135Z,18.88
2023-02-08T21:38:39.396Z,20.40
2023-02-08T21:41:17.173Z,20.10
2023-02-08T21:43:44.636Z,17.27
2023-02-08T21:46:11.959Z,17.25
2023-02-08T21:48:58.288Z,18.33
2023-02-08T21:51:44.312Z,14.82
2023-02-08T21:54:31.131Z,15.27
2023-02-08T21:57:02.367Z,16.27
2023-02-08T21:59:30.007Z,18.25
2023-02-08T22:01:57.282Z,15.27
2023-02-08T22:04:25.400Z,13.95
2023-02-08T22:06:52.701Z,16.42
2023-02-08T22:09:21.088Z,15.38
2023-02-08T22:11:49.170Z,15.68
2023-02-08T22:14:16.521Z,16.17
2023-02-08T22:16:43.756Z,15.75
2023-02-08T22:19:10.967Z,15.45
2023-02-08T22:21:38.334Z,18.73
2023-02-08T22:24:05.642Z,17.10
2023-02-08T22:26:32.933Z,17.80
2023-02-08T22:29:01.328Z,15.57
2023-02-08T22:31:28.743Z,18.13
2023-02-08T22:33:56.594Z,16.60
2023-02-08T22:36:23.909Z,15.80
2023-02-08T22:38:51.202Z,17.10
2023-02-08T22:41:18.604Z,18.23
2023-02-08T22:43:46.322Z,15.93
2023-02-08T22:46:13.886Z,14.77
2023-02-08T22:48:41.635Z,19.17
2023-02-08T22:51:18.916Z,16.65
2023-02-08T22:53:46.287Z,20.95
2023-02-08T22:56:17.694Z,19.05
2023-02-08T22:58:45.082Z,17.48
2023-02-08T23:01:16.344Z,19.85
2023-02-08T23:03:43.689Z,17.23
2023-02-08T23:06:13.136Z,16.23
2023-02-08T23:08:40.384Z,18.90
2023-02-08T23:11:07.667Z,21.75
2023-02-08T23:13:35.302Z,16.50
2023-02-08T23:16:02.837Z,17.50
2023-02-08T23:18:30.204Z,16.85
2023-02-08T23:20:57.502Z,23.17
2023-02-08T23:23:24.789Z,17.38
2023-02-08T23:25:52.016Z,18.63
2023-02-08T23:28:19.298Z,17.60
2023-02-08T23:30:46.921Z,18.65
2023-02-08T23:33:14.331Z,19.83
2023-02-08T23:35:42.009Z,15.88
2023-02-08T23:38:09.753Z,17.10
2023-02-08T23:40:36.979Z,16.67
2023-02-08T23:43:04.256Z,18.35
2023-02-08T23:45:32.724Z,15.80
2023-02-08T23:47:59.966Z,18.25
2023-02-08T23:50:27.221Z,15.23
2023-02-08T23:52:56.461Z,17.30
2023-02-08T23:55:23.885Z,22.05
2023-02-08T23:57:51.168Z,18.73
